sensor_id;sensor_type;location;lat;lon;timestamp;pressure;altitude;pressure_sealevel;temperature;humidity
56142;BME280;42018;48.588;10.836;2023-04-22T07:58:43;96262.22;;;14.53;61.80
56142;BME280;42018;48.588;10.836;2023-04-22T08:01:29;96258.03;;;14.61;60.09
56142;BME280;42018;48.588;10.836;2023-04-22T08:04:15;96256.34;;;14.88;60.59
56142;BME280;42018;48.588;10.836;2023-04-22T08:07:00;96264.78;;;14.81;59.83
56142;BME280;42018;48.588;10.836;2023-04-22T08:09:47;96263.38;;;14.83;59.18
56142;BME280;42018;48.588;10.836;2023-04-22T08:12:32;96254.94;;;14.90;59.76
56142;BME280;42018;48.588;10.836;2023-04-22T08:15:18;96260.19;;;15.26;58.35
56142;BME280;42018;48.588;10.836;2023-04-22T08:18:03;96262.84;;;15.26;58.07
56142;BME280;42018;48.588;10.836;2023-04-22T08:20:49;96260.81;;;15.63;57.47
56142;BME280;42018;48.588;10.836;2023-04-22T08:23:34;96265.94;;;15.91;56.55
56142;BME280;42018;48.588;10.836;2023-04-22T08:26:20;96262.94;;;15.92;55.88
56142;BME280;42018;48.588;10.836;2023-04-22T08:29:05;96261.88;;;16.02;56.03
56142;BME280;42018;48.588;10.836;2023-04-22T08:31:51;96261.75;;;16.24;55.15
56142;BME280;42018;48.588;10.836;2023-04-22T08:34:36;96253.44;;;16.26;54.59
56142;BME280;42018;48.588;10.836;2023-04-22T08:37:22;96250.75;;;16.35;53.74
56142;BME280;42018;48.588;10.836;2023-04-22T08:40:07;96248.41;;;16.77;54.38
56142;BME280;42018;48.588;10.836;2023-04-22T08:42:53;96254.66;;;16.89;52.51
56142;BME280;42018;48.588;10.836;2023-04-22T08:45:40;96251.34;;;17.10;51.28
56142;BME280;42018;48.588;10.836;2023-04-22T08:48:26;96256.31;;;17.37;50.16
56142;BME280;42018;48.588;10.836;2023-04-22T08:51:14;96248.66;;;17.57;50.39
56142;BME280;42018;48.588;10.836;2023-04-22T08:54:00;96249.84;;;17.68;49.48
56142;BME280;42018;48.588;10.836;2023-04-22T08:56:48;96246.09;;;17.99;49.99
56142;BME280;42018;48.588;10.836;2023-04-22T08:59:34;96242.56;;;18.07;48.78
56142;BME280;42018;48.588;10.836;2023-04-22T09:02:23;96243.91;;;18.22;48.21
56142;BME280;42018;48.588;10.836;2023-04-22T09:05:09;96247.44;;;18.34;47.56
56142;BME280;42018;48.588;10.836;2023-04-22T09:07:54;96247.91;;;18.57;47.57
56142;BME280;42018;48.588;10.836;2023-04-22T09:10:42;96245.94;;;18.46;47.20
56142;BME280;42018;48.588;10.836;2023-04-22T09:13:27;96247.03;;;18.86;46.37
56142;BME280;42018;48.588;10.836;2023-04-22T09:16:12;96236.66;;;18.97;45.23
56142;BME280;42018;48.588;10.836;2023-04-22T09:18:58;96237.31;;;18.40;45.63
56142;BME280;42018;48.588;10.836;2023-04-22T09:21:43;96230.44;;;18.51;45.67
56142;BME280;42018;48.588;10.836;2023-04-22T09:24:29;96232.09;;;18.98;43.78
56142;BME280;42018;48.588;10.836;2023-04-22T09:27:15;96226.88;;;19.38;44.96
56142;BME280;42018;48.588;10.836;2023-04-22T09:30:07;96223.69;;;19.81;44.11
56142;BME280;42018;48.588;10.836;2023-04-22T09:32:55;96221.91;;;19.85;43.46
56142;BME280;42018;48.588;10.836;2023-04-22T09:35:41;96227.06;;;19.78;43.83
56142;BME280;42018;48.588;10.836;2023-04-22T09:38:30;96223.63;;;19.20;43.76
56142;BME280;42018;48.588;10.836;2023-04-22T09:41:15;96216.81;;;19.23;44.47
56142;BME280;42018;48.588;10.836;2023-04-22T09:44:02;96227.75;;;18.72;45.09
56142;BME280;42018;48.588;10.836;2023-04-22T09:46:48;96227.75;;;18.51;45.89
56142;BME280;42018;48.588;10.836;2023-04-22T09:49:36;96218.59;;;19.31;43.99
56142;BME280;42018;48.588;10.836;2023-04-22T09:52:26;96217.97;;;19.83;44.77
56142;BME280;42018;48.588;10.836;2023-04-22T09:55:12;96219.66;;;19.75;43.37
56142;BME280;42018;48.588;10.836;2023-04-22T09:58:07;96206.50;;;20.11;42.84
56142;BME280;42018;48.588;10.836;2023-04-22T10:06:06;96209.25;;;20.95;40.07
56142;BME280;42018;48.588;10.836;2023-04-22T11:00:38;96182.94;;;21.20;37.15
56142;BME280;42018;48.588;10.836;2023-04-22T12:18:31;96123.38;;;23.38;34.67
56142;BME280;42018;48.588;10.836;2023-04-22T13:54:08;96049.53;;;25.65;26.71
56142;BME280;42018;48.588;10.836;2023-04-22T13:56:54;96045.31;;;25.78;27.00
56142;BME280;42018;48.588;10.836;2023-04-22T14:33:16;96033.75;;;25.16;27.45
56142;BME280;42018;48.588;10.836;2023-04-22T14:36:00;96026.09;;;25.32;27.89
56142;BME280;42018;48.588;10.836;2023-04-22T14:38:48;96026.09;;;25.32;27.58
56142;BME280;42018;48.588;10.836;2023-04-22T14:41:33;96030.34;;;24.78;26.76
56142;BME280;42018;48.588;10.836;2023-04-22T14:57:15;96020.38;;;24.45;27.92
56142;BME280;42018;48.588;10.836;2023-04-22T15:00:06;96019.78;;;24.28;27.93
56142;BME280;42018;48.588;10.836;2023-04-22T15:02:55;96018.66;;;24.33;28.20
56142;BME280;42018;48.588;10.836;2023-04-22T15:05:43;96016.31;;;24.28;27.10
56142;BME280;42018;48.588;10.836;2023-04-22T15:08:19;96016.94;;;24.48;27.25
56142;BME280;42018;48.588;10.836;2023-04-22T15:11:04;96010.13;;;24.68;27.68
56142;BME280;42018;48.588;10.836;2023-04-22T15:16:23;96017.03;;;24.58;27.86
56142;BME280;42018;48.588;10.836;2023-04-22T15:19:08;96017.84;;;24.66;27.43
56142;BME280;42018;48.588;10.836;2023-04-22T15:26:59;96016.81;;;24.03;28.41
56142;BME280;42018;48.588;10.836;2023-04-22T15:29:45;96019.66;;;24.14;29.09
56142;BME280;42018;48.588;10.836;2023-04-22T15:32:31;96023.41;;;23.72;28.02
56142;BME280;42018;48.588;10.836;2023-04-22T15:35:17;96026.84;;;23.69;28.10
56142;BME280;42018;48.588;10.836;2023-04-22T15:38:04;96023.03;;;23.70;29.08
56142;BME280;42018;48.588;10.836;2023-04-22T15:40:49;96021.03;;;23.40;29.45
56142;BME280;42018;48.588;10.836;2023-04-22T15:43:35;96021.50;;;23.16;28.73
56142;BME280;42018;48.588;10.836;2023-04-22T15:46:21;96025.28;;;23.11;28.93
56142;BME280;42018;48.588;10.836;2023-04-22T15:49:06;96020.44;;;22.98;29.25
56142;BME280;42018;48.588;10.836;2023-04-22T15:51:52;96021.28;;;23.02;30.15
56142;BME280;42018;48.588;10.836;2023-04-22T15:54:37;96022.13;;;23.06;28.58
56142;BME280;42018;48.588;10.836;2023-04-22T15:57:23;96018.28;;;23.07;30.10
56142;BME280;42018;48.588;10.836;2023-04-22T16:00:09;96022.94;;;23.10;30.39
56142;BME280;42018;48.588;10.836;2023-04-22T16:02:56;96022.03;;;22.99;30.05
56142;BME280;42018;48.588;10.836;2023-04-22T16:05:41;96018.06;;;22.92;30.93
56142;BME280;42018;48.588;10.836;2023-04-22T16:08:26;96016.00;;;22.86;29.84
56142;BME280;42018;48.588;10.836;2023-04-22T16:11:13;96017.56;;;22.64;31.18
56142;BME280;42018;48.588;10.836;2023-04-22T16:13:58;96016.91;;;22.47;31.32
56142;BME280;42018;48.588;10.836;2023-04-22T16:16:44;96012.94;;;22.64;31.08
56142;BME280;42018;48.588;10.836;2023-04-22T16:19:30;96007.78;;;22.79;31.20
56142;BME280;42018;48.588;10.836;2023-04-22T16:22:15;96020.50;;;22.78;29.33
56142;BME280;42018;48.588;10.836;2023-04-22T16:25:00;96009.41;;;22.37;29.99
56142;BME280;42018;48.588;10.836;2023-04-22T16:27:46;96014.63;;;22.50;30.28
56142;BME280;42018;48.588;10.836;2023-04-22T16:30:32;96015.66;;;22.64;31.41
56142;BME280;42018;48.588;10.836;2023-04-22T16:33:17;96019.56;;;22.67;32.71
56142;BME280;42018;48.588;10.836;2023-04-22T16:36:03;96014.22;;;22.47;32.53
56142;BME280;42018;48.588;10.836;2023-04-22T16:38:48;96008.16;;;22.54;32.90
56142;BME280;42018;48.588;10.836;2023-04-22T16:41:34;96010.25;;;22.64;33.10
56142;BME280;42018;48.588;10.836;2023-04-22T16:44:19;96014.22;;;22.47;33.71
56142;BME280;42018;48.588;10.836;2023-04-22T16:47:05;96008.81;;;22.47;33.88
56142;BME280;42018;48.588;10.836;2023-04-22T16:49:51;96001.38;;;22.41;34.46
56142;BME280;42018;48.588;10.836;2023-04-22T16:52:37;96007.50;;;22.38;34.32
56142;BME280;42018;48.588;10.836;2023-04-22T16:55:23;96011.19;;;22.30;35.40
56142;BME280;42018;48.588;10.836;2023-04-22T16:58:08;96009.72;;;22.32;35.54
56142;BME280;42018;48.588;10.836;2023-04-22T17:00:53;96007.72;;;22.29;36.07
56142;BME280;42018;48.588;10.836;2023-04-22T17:03:39;96011.56;;;22.28;35.83
56142;BME280;42018;48.588;10.836;2023-04-22T17:06:24;96011.72;;;22.16;36.87
56142;BME280;42018;48.588;10.836;2023-04-22T17:09:12;96013.97;;;22.14;36.00
56142;BME280;42018;48.588;10.836;2023-04-22T17:11:57;96019.81;;;22.16;36.40
56142;BME280;42018;48.588;10.836;2023-04-22T17:14:42;96015.13;;;21.93;36.77
56142;BME280;42018;48.588;10.836;2023-04-22T17:17:28;96019.66;;;21.70;38.19
56142;BME280;42018;48.588;10.836;2023-04-22T17:20:13;96015.69;;;21.44;38.11
56142;BME280;42018;48.588;10.836;2023-04-22T17:22:59;96027.34;;;20.97;37.71
56142;BME280;42018;48.588;10.836;2023-04-22T17:25:44;96028.31;;;20.73;40.05
56142;BME280;42018;48.588;10.836;2023-04-22T17:28:31;96025.09;;;20.52;40.66
56142;BME280;42018;48.588;10.836;2023-04-22T17:31:16;96026.94;;;20.64;40.55
56142;BME280;42018;48.588;10.836;2023-04-22T17:34:02;96029.38;;;20.25;39.38
56142;BME280;42018;48.588;10.836;2023-04-22T17:36:48;96029.19;;;20.18;36.29
56142;BME280;42018;48.588;10.836;2023-04-22T17:39:33;96022.59;;;20.31;37.10
56142;BME280;42018;48.588;10.836;2023-04-22T17:42:18;96027.03;;;20.23;36.81
56142;BME280;42018;48.588;10.836;2023-04-22T17:45:05;96015.59;;;20.42;36.59
56142;BME280;42018;48.588;10.836;2023-04-22T17:47:50;96013.59;;;20.39;36.55
56142;BME280;42018;48.588;10.836;2023-04-22T17:50:36;96018.91;;;20.36;36.36
56142;BME280;42018;48.588;10.836;2023-04-22T17:53:21;96020.78;;;20.19;37.25
56142;BME280;42018;48.588;10.836;2023-04-22T17:56:07;96027.97;;;20.15;37.98
56142;BME280;42018;48.588;10.836;2023-04-22T17:58:53;96029.34;;;19.81;38.49
56142;BME280;42018;48.588;10.836;2023-04-22T18:01:38;96033.66;;;19.98;39.05
56142;BME280;42018;48.588;10.836;2023-04-22T18:04:24;96039.63;;;19.91;38.98
56142;BME280;42018;48.588;10.836;2023-04-22T18:07:09;96042.59;;;20.02;39.24
56142;BME280;42018;48.588;10.836;2023-04-22T18:09:54;96038.19;;;20.09;39.57
56142;BME280;42018;48.588;10.836;2023-04-22T18:12:40;96048.06;;;20.05;39.40
56142;BME280;42018;48.588;10.836;2023-04-22T18:15:25;96053.16;;;19.95;39.34
56142;BME280;42018;48.588;10.836;2023-04-22T18:18:11;96056.91;;;19.78;39.90
56142;BME280;42018;48.588;10.836;2023-04-22T18:20:59;96062.19;;;19.62;40.19
56142;BME280;42018;48.588;10.836;2023-04-22T18:23:45;96067.03;;;19.69;39.95
56142;BME280;42018;48.588;10.836;2023-04-22T18:26:30;96072.94;;;19.62;39.92
56142;BME280;42018;48.588;10.836;2023-04-22T18:29:16;96068.72;;;19.49;40.15
56142;BME280;42018;48.588;10.836;2023-04-22T18:32:01;96080.47;;;19.44;39.08
56142;BME280;42018;48.588;10.836;2023-04-22T18:34:47;96088.78;;;19.02;39.38
56142;BME280;42018;48.588;10.836;2023-04-22T18:37:32;96094.16;;;19.02;39.54
56142;BME280;42018;48.588;10.836;2023-04-22T18:40:18;96092.72;;;18.93;39.93
56142;BME280;42018;48.588;10.836;2023-04-22T18:43:05;96097.50;;;18.87;40.29
56142;BME280;42018;48.588;10.836;2023-04-22T18:45:50;96099.72;;;18.85;40.61
56142;BME280;42018;48.588;10.836;2023-04-22T18:48:35;96100.13;;;18.62;41.42
56142;BME280;42018;48.588;10.836;2023-04-22T18:51:21;96108.41;;;18.70;42.20
56142;BME280;42018;48.588;10.836;2023-04-22T18:54:06;96106.06;;;18.68;42.78
56142;BME280;42018;48.588;10.836;2023-04-22T18:56:52;96119.56;;;18.59;42.37
56142;BME280;42018;48.588;10.836;2023-04-22T18:59:37;96132.59;;;18.15;45.27
56142;BME280;42018;48.588;10.836;2023-04-22T19:02:29;96131.09;;;17.85;45.82
56142;BME280;42018;48.588;10.836;2023-04-22T19:05:14;96128.81;;;17.95;45.96
56142;BME280;42018;48.588;10.836;2023-04-22T19:08:02;96141.94;;;18.09;45.72
56142;BME280;42018;48.588;10.836;2023-04-22T19:10:47;96137.47;;;17.71;46.01
56142;BME280;42018;48.588;10.836;2023-04-22T19:13:32;96141.16;;;17.88;45.74
56142;BME280;42018;48.588;10.836;2023-04-22T19:16:18;96142.81;;;17.80;46.17
56142;BME280;42018;48.588;10.836;2023-04-22T19:19:03;96149.84;;;17.85;46.23
56142;BME280;42018;48.588;10.836;2023-04-22T19:21:48;96149.72;;;17.81;46.38
56142;BME280;42018;48.588;10.836;2023-04-22T19:24:34;96150.78;;;17.59;47.04
56142;BME280;42018;48.588;10.836;2023-04-22T19:27:20;96150.19;;;17.54;47.27
56142;BME280;42018;48.588;10.836;2023-04-22T19:30:06;96156.50;;;17.49;47.45
56142;BME280;42018;48.588;10.836;2023-04-22T19:32:55;96154.97;;;17.48;47.86
56142;BME280;42018;48.588;10.836;2023-04-22T19:35:40;96160.63;;;17.46;47.95
56142;BME280;42018;48.588;10.836;2023-04-22T19:38:25;96160.63;;;17.46;48.27
56142;BME280;42018;48.588;10.836;2023-04-22T19:41:11;96157.00;;;17.51;48.14
56142;BME280;42018;48.588;10.836;2023-04-22T19:43:57;96173.72;;;17.39;48.46
56142;BME280;42018;48.588;10.836;2023-04-22T19:46:43;96156.72;;;17.44;48.92
56142;BME280;42018;48.588;10.836;2023-04-22T19:49:31;96163.44;;;17.50;48.63
56142;BME280;42018;48.588;10.836;2023-04-22T19:52:18;96163.44;;;17.50;48.66
56142;BME280;42018;48.588;10.836;2023-04-22T19:55:05;96164.19;;;17.59;48.53
56142;BME280;42018;48.588;10.836;2023-04-22T19:57:54;96171.19;;;17.43;48.81
56142;BME280;42018;48.588;10.836;2023-04-22T20:00:39;96167.94;;;17.37;49.20
56142;BME280;42018;48.588;10.836;2023-04-22T20:03:26;96161.88;;;17.49;49.19
56142;BME280;42018;48.588;10.836;2023-04-22T20:06:12;96157.91;;;17.55;49.06
56142;BME280;42018;48.588;10.836;2023-04-22T20:09:00;96148.66;;;17.74;49.50
56142;BME280;42018;48.588;10.836;2023-04-22T20:11:47;96161.91;;;17.70;49.95
56142;BME280;42018;48.588;10.836;2023-04-22T20:14:32;96161.91;;;17.70;50.30
56142;BME280;42018;48.588;10.836;2023-04-22T20:17:19;96166.94;;;17.71;50.90
56142;BME280;42018;48.588;10.836;2023-04-22T20:20:07;96162.25;;;17.68;50.65
56142;BME280;42018;48.588;10.836;2023-04-22T20:23:00;96162.25;;;17.68;50.31
56142;BME280;42018;48.588;10.836;2023-04-22T20:25:54;96167.25;;;17.79;50.05
56142;BME280;42018;48.588;10.836;2023-04-22T20:28:48;96163.34;;;17.67;50.41
56142;BME280;42018;48.588;10.836;2023-04-22T20:31:33;96160.00;;;17.70;50.62
56142;BME280;42018;48.588;10.836;2023-04-22T20:34:19;96171.81;;;17.78;50.40
56142;BME280;42018;48.588;10.836;2023-04-22T20:37:05;96174.06;;;17.76;49.92
56142;BME280;42018;48.588;10.836;2023-04-22T20:39:54;96167.69;;;17.51;50.39
56142;BME280;42018;48.588;10.836;2023-04-22T20:42:40;96188.72;;;17.40;50.85
56142;BME280;42018;48.588;10.836;2023-04-22T20:45:26;96178.44;;;17.42;50.45
56142;BME280;42018;48.588;10.836;2023-04-22T20:48:13;96170.69;;;17.50;50.36
56142;BME280;42018;48.588;10.836;2023-04-22T20:51:32;96162.50;;;17.46;50.34
56142;BME280;42018;48.588;10.836;2023-04-22T20:54:17;96162.63;;;17.58;49.88
56142;BME280;42018;48.588;10.836;2023-04-22T20:57:07;96162.50;;;17.55;50.11
56142;BME280;42018;48.588;10.836;2023-04-22T20:59:52;96155.66;;;17.57;50.01
56142;BME280;42018;48.588;10.836;2023-04-22T21:02:45;96161.72;;;17.54;50.52
56142;BME280;42018;48.588;10.836;2023-04-22T21:05:35;96150.72;;;17.47;50.60
56142;BME280;42018;48.588;10.836;2023-04-22T21:08:27;96153.34;;;17.56;50.61
56142;BME280;42018;48.588;10.836;2023-04-22T21:11:13;96146.91;;;17.48;51.13
56142;BME280;42018;48.588;10.836;2023-04-22T21:14:18;96138.19;;;17.60;50.80
56142;BME280;42018;48.588;10.836;2023-04-22T21:17:23;96137.97;;;17.44;51.13
56142;BME280;42018;48.588;10.836;2023-04-22T21:20:09;96140.16;;;17.42;51.38
56142;BME280;42018;48.588;10.836;2023-04-22T21:22:56;96144.13;;;17.36;51.64
56142;BME280;42018;48.588;10.836;2023-04-22T21:25:56;96146.09;;;17.27;52.06
56142;BME280;42018;48.588;10.836;2023-04-22T21:28:46;96148.13;;;17.30;51.95
56142;BME280;42018;48.588;10.836;2023-04-22T21:31:34;96142.16;;;17.54;51.30
56142;BME280;42018;48.588;10.836;2023-04-22T21:34:19;96149.13;;;17.46;51.42
56142;BME280;42018;48.588;10.836;2023-04-22T21:37:06;96142.22;;;17.45;51.88
56142;BME280;42018;48.588;10.836;2023-04-22T21:39:52;96148.53;;;17.40;51.80
56142;BME280;42018;48.588;10.836;2023-04-22T21:42:52;96156.97;;;17.21;52.23
56142;BME280;42018;48.588;10.836;2023-04-22T21:45:37;96154.28;;;17.21;52.70
56142;BME280;42018;48.588;10.836;2023-04-22T21:48:43;96156.38;;;17.16;52.41
56142;BME280;42018;48.588;10.836;2023-04-22T21:51:29;96152.59;;;17.17;51.95
56142;BME280;42018;48.588;10.836;2023-04-22T21:54:20;96154.53;;;17.08;51.97
56142;BME280;42018;48.588;10.836;2023-04-22T22:01:05;96162.84;;;17.15;51.96
56142;BME280;42018;48.588;10.836;2023-04-22T22:07:47;96165.38;;;17.11;52.10
56142;BME280;42018;48.588;10.836;2023-04-22T22:10:33;96164.72;;;17.14;52.01
56142;BME280;42018;48.588;10.836;2023-04-22T22:13:22;96174.84;;;17.00;52.50
56142;BME280;42018;48.588;10.836;2023-04-22T22:16:07;96170.94;;;16.97;52.22
56142;BME280;42018;48.588;10.836;2023-04-22T22:18:55;96179.16;;;16.84;52.87
56142;BME280;42018;48.588;10.836;2023-04-22T22:21:57;96168.47;;;16.75;53.23
56142;BME280;42018;48.588;10.836;2023-04-22T22:28:25;96131.69;;;16.55;53.93
56142;BME280;42018;48.588;10.836;2023-04-22T22:31:43;96152.41;;;16.58;54.38
56142;BME280;42018;48.588;10.836;2023-04-22T22:34:53;96172.72;;;16.50;56.51
56142;BME280;42018;48.588;10.836;2023-04-22T22:37:38;96174.63;;;16.49;57.35
56142;BME280;42018;48.588;10.836;2023-04-22T22:40:26;96183.13;;;16.34;58.35
56142;BME280;42018;48.588;10.836;2023-04-22T22:43:12;96181.25;;;16.35;58.51
56142;BME280;42018;48.588;10.836;2023-04-22T22:45:58;96180.28;;;16.48;57.76
56142;BME280;42018;48.588;10.836;2023-04-22T22:48:43;96169.75;;;16.51;57.97
56142;BME280;42018;48.588;10.836;2023-04-22T22:51:31;96172.88;;;16.62;56.78
56142;BME280;42018;48.588;10.836;2023-04-22T22:54:34;96176.81;;;16.56;56.51
56142;BME280;42018;48.588;10.836;2023-04-22T22:57:35;96171.31;;;16.52;56.82
56142;BME280;42018;48.588;10.836;2023-04-22T23:00:21;96176.34;;;16.45;57.10
56142;BME280;42018;48.588;10.836;2023-04-22T23:03:14;96176.03;;;16.38;56.96
56142;BME280;42018;48.588;10.836;2023-04-22T23:06:00;96171.66;;;16.25;57.40
56142;BME280;42018;48.588;10.836;2023-04-22T23:08:46;96185.97;;;16.38;57.03
56142;BME280;42018;48.588;10.836;2023-04-22T23:11:32;96183.13;;;16.34;57.63
56142;BME280;42018;48.588;10.836;2023-04-22T23:14:17;96182.34;;;16.34;57.52
56142;BME280;42018;48.588;10.836;2023-04-22T23:17:04;96184.53;;;16.49;56.92
56142;BME280;42018;48.588;10.836;2023-04-22T23:19:55;96182.19;;;16.39;56.89
56142;BME280;42018;48.588;10.836;2023-04-22T23:22:42;96185.63;;;16.57;56.71
56142;BME280;42018;48.588;10.836;2023-04-22T23:25:27;96179.34;;;16.44;57.12
56142;BME280;42018;48.588;10.836;2023-04-22T23:28:14;96180.31;;;16.31;57.71
56142;BME280;42018;48.588;10.836;2023-04-22T23:34:30;96174.31;;;15.33;60.71
56142;BME280;42018;48.588;10.836;2023-04-22T23:37:30;96179.38;;;15.43;60.44
56142;BME280;42018;48.588;10.836;2023-04-22T23:40:15;96179.19;;;15.31;60.89
56142;BME280;42018;48.588;10.836;2023-04-22T23:43:03;96176.75;;;15.52;60.32
56142;BME280;42018;48.588;10.836;2023-04-22T23:45:48;96178.31;;;15.62;59.98
56142;BME280;42018;48.588;10.836;2023-04-22T23:48:53;96179.56;;;15.64;59.92
56142;BME280;42018;48.588;10.836;2023-04-22T23:55:35;96176.56;;;15.57;59.87
56142;BME280;42018;48.588;10.836;2023-04-22T23:58:20;96169.19;;;15.45;60.61
